Time;durP1;ratioP1;P1;durP2;ratioP2;P2;SDS_P1;SDS_P2;PMS_P1;PMS_P2;Temp;Humidity;BMP_temperature;BMP_pressure;BME280_temperature;BME280_humidity;BME280_pressure;Samples;Min_cycle;Max_cycle;Signal;HPM_P1;HPM_P2
2023/01/23 00:00:15;;;;;;;6.43;5.03;;;;;;;;;;5014243;28;20205;-54
2023/01/23 00:02:43;;;;;;;5.83;5.23;;;;;;;;;;5013996;28;20201;-55
2023/01/23 00:05:09;;;;;;;6.70;5.33;;;;;;;;;;5013290;28;20472;-55
2023/01/23 00:07:35;;;;;;;6.77;4.97;;;;;;;;;;5013354;28;20437;-55
2023/01/23 00:10:02;;;;;;;7.23;5.30;;;;;;;;;;5013439;28;20488;-55
2023/01/23 00:12:27;;;;;;;8.97;5.23;;;;;;;;;;5013686;28;20201;-55
2023/01/23 00:14:53;;;;;;;6.50;5.27;;;;;;;;;;5013157;28;20476;-55
2023/01/23 00:17:19;;;;;;;5.30;4.80;;;;;;;;;;5011487;28;20201;-56
2023/01/23 00:19:47;;;;;;;6.87;5.30;;;;;;;;;;5009575;28;20194;-56
2023/01/23 00:22:14;;;;;;;5.40;4.87;;;;;;;;;;5013677;28;20212;-56
2023/01/23 00:24:40;;;;;;;7.47;5.10;;;;;;;;;;5013263;28;20433;-56
2023/01/23 00:27:06;;;;;;;6.10;5.17;;;;;;;;;;5013590;28;20444;-56
2023/01/23 00:29:32;;;;;;;7.73;4.80;;;;;;;;;;5013509;28;20479;-56
2023/01/23 00:31:58;;;;;;;6.20;5.20;;;;;;;;;;5013396;28;20201;-55
2023/01/23 00:34:24;;;;;;;8.23;5.00;;;;;;;;;;5013523;28;20440;-56
2023/01/23 00:36:52;;;;;;;5.93;5.27;;;;;;;;;;5013344;28;20657;-55
2023/01/23 00:39:18;;;;;;;5.87;5.37;;;;;;;;;;5013625;28;20609;-56
2023/01/23 00:41:45;;;;;;;7.83;5.70;;;;;;;;;;5013326;28;21043;-56
2023/01/23 00:44:11;;;;;;;9.13;5.50;;;;;;;;;;5013413;28;20480;-56
2023/01/23 00:46:37;;;;;;;8.27;5.60;;;;;;;;;;5013370;28;20425;-55
2023/01/23 00:49:03;;;;;;;6.70;5.10;;;;;;;;;;5013400;28;20568;-55
2023/01/23 00:51:29;;;;;;;7.33;5.63;;;;;;;;;;5013353;28;20484;-56
2023/01/23 00:53:57;;;;;;;7.87;4.97;;;;;;;;;;5013152;28;20437;-55
2023/01/23 00:56:23;;;;;;;5.93;5.03;;;;;;;;;;5013266;28;20535;-55
2023/01/23 00:58:49;;;;;;;5.73;5.10;;;;;;;;;;5013053;28;20685;-56
2023/01/23 01:01:15;;;;;;;5.07;4.60;;;;;;;;;;5013065;28;20273;-55
2023/01/23 01:03:41;;;;;;;5.97;5.37;;;;;;;;;;5012856;28;20445;-56
2023/01/23 01:06:07;;;;;;;5.83;5.23;;;;;;;;;;5012818;28;20433;-56
2023/01/23 01:08:33;;;;;;;5.60;4.80;;;;;;;;;;5012919;28;20444;-56
2023/01/23 01:11:01;;;;;;;6.33;4.87;;;;;;;;;;5012722;28;20481;-56
2023/01/23 01:13:27;;;;;;;6.17;4.93;;;;;;;;;;5012851;28;20528;-56
2023/01/23 01:15:54;;;;;;;6.30;5.20;;;;;;;;;;5012566;28;20448;-56
2023/01/23 01:18:20;;;;;;;5.83;4.70;;;;;;;;;;5012543;28;20440;-56
2023/01/23 01:20:46;;;;;;;5.30;4.67;;;;;;;;;;5012009;28;20461;-55
2023/01/23 01:23:12;;;;;;;6.63;4.97;;;;;;;;;;5012311;28;20906;-56
2023/01/23 01:25:39;;;;;;;6.40;4.90;;;;;;;;;;5012233;28;20862;-56
2023/01/23 01:28:06;;;;;;;5.53;4.77;;;;;;;;;;5010364;28;21216;-56
2023/01/23 01:30:33;;;;;;;5.90;4.93;;;;;;;;;;5012624;28;20480;-56
2023/01/23 01:32:59;;;;;;;6.97;5.10;;;;;;;;;;5012832;28;20841;-56
2023/01/23 01:35:25;;;;;;;8.10;5.10;;;;;;;;;;5012590;28;20456;-56
2023/01/23 01:37:51;;;;;;;5.97;4.70;;;;;;;;;;5012608;28;20502;-56
2023/01/23 01:40:18;;;;;;;6.77;5.60;;;;;;;;;;5012714;28;20468;-56
2023/01/23 01:42:44;;;;;;;6.57;5.10;;;;;;;;;;5012095;28;20201;-56
2023/01/23 01:45:25;;;;;;;5.40;4.77;;;;;;;;;;5012616;28;20472;-56
2023/01/23 01:47:52;;;;;;;6.47;5.37;;;;;;;;;;5011679;28;20207;-56
2023/01/23 01:50:18;;;;;;;7.30;5.23;;;;;;;;;;5012473;28;20484;-56
2023/01/23 01:52:44;;;;;;;5.97;5.37;;;;;;;;;;5012505;28;20954;-56
2023/01/23 01:55:10;;;;;;;5.70;5.13;;;;;;;;;;5012598;28;20923;-56
2023/01/23 01:57:39;;;;;;;8.20;5.10;;;;;;;;;;5012443;28;20455;-56
2023/01/23 02:00:07;;;;;;;5.60;5.10;;;;;;;;;;5012422;28;20194;-56
2023/01/23 02:02:35;;;;;;;8.30;5.60;;;;;;;;;;5012340;28;20462;-56
2023/01/23 02:05:09;;;;;;;6.43;5.23;;;;;;;;;;5012258;28;20448;-56
2023/01/23 02:07:38;;;;;;;6.93;5.43;;;;;;;;;;5012360;28;20444;-56
2023/01/23 02:10:04;;;;;;;8.60;5.33;;;;;;;;;;5001137;28;20503;-56
2023/01/23 02:12:33;;;;;;;6.10;4.90;;;;;;;;;;4992586;28;20954;-56
2023/01/23 02:14:59;;;;;;;5.93;5.17;;;;;;;;;;4992639;28;20448;-56
2023/01/23 02:17:25;;;;;;;5.40;4.90;;;;;;;;;;4992662;28;20430;-56
2023/01/23 02:19:54;;;;;;;5.10;4.57;;;;;;;;;;4992411;28;20438;-56
2023/01/23 02:22:28;;;;;;;5.70;5.20;;;;;;;;;;4992651;28;20442;-56
2023/01/23 02:24:58;;;;;;;5.20;4.67;;;;;;;;;;4992592;28;20441;-56
2023/01/23 02:27:25;;;;;;;7.73;4.77;;;;;;;;;;4992582;28;20491;-56
2023/01/23 02:29:55;;;;;;;6.30;5.53;;;;;;;;;;4992623;28;20492;-56
2023/01/23 02:32:23;;;;;;;6.33;5.00;;;;;;;;;;4992503;28;20524;-56
2023/01/23 02:34:50;;;;;;;5.17;4.63;;;;;;;;;;4992312;28;20437;-55
2023/01/23 02:37:16;;;;;;;5.60;4.73;;;;;;;;;;4992511;28;20464;-58
2023/01/23 02:39:42;;;;;;;6.43;5.20;;;;;;;;;;4992474;28;20488;-55
2023/01/23 02:42:09;;;;;;;6.77;5.30;;;;;;;;;;4992393;28;20461;-55
2023/01/23 02:44:36;;;;;;;6.17;4.43;;;;;;;;;;5004661;28;20567;-56
2023/01/23 02:47:03;;;;;;;5.63;5.07;;;;;;;;;;5009988;28;20863;-55
2023/01/23 02:49:30;;;;;;;5.77;4.63;;;;;;;;;;5011426;28;20441;-55
2023/01/23 02:51:56;;;;;;;5.97;5.17;;;;;;;;;;5011495;28;20439;-55
2023/01/23 02:54:25;;;;;;;6.60;5.40;;;;;;;;;;5012799;28;20905;-56
2023/01/23 02:56:51;;;;;;;5.87;5.37;;;;;;;;;;5013452;28;20440;-56
2023/01/23 03:02:04;;;;;;;5.30;4.80;;;;;;;;;;5015766;28;20578;-56
2023/01/23 03:04:31;;;;;;;5.97;4.80;;;;;;;;;;5013727;28;20539;-56
2023/01/23 03:06:58;;;;;;;8.03;4.53;;;;;;;;;;5015581;28;20799;-55
2023/01/23 03:09:24;;;;;;;5.53;4.63;;;;;;;;;;5015578;28;20483;-55
2023/01/23 03:11:51;;;;;;;5.73;5.00;;;;;;;;;;5015338;28;20531;-55
2023/01/23 03:14:18;;;;;;;6.67;5.00;;;;;;;;;;5015423;28;20527;-55
2023/01/23 03:16:49;;;;;;;8.83;5.50;;;;;;;;;;5015483;28;20545;-55
2023/01/23 03:19:17;;;;;;;6.43;5.07;;;;;;;;;;5015542;28;20448;-55
2023/01/23 03:21:43;;;;;;;6.30;4.60;;;;;;;;;;5015617;28;20432;-55
2023/01/23 03:24:10;;;;;;;6.90;5.63;;;;;;;;;;5015360;28;20456;-55
2023/01/23 03:26:37;;;;;;;5.97;4.83;;;;;;;;;;5015310;28;20523;-55
2023/01/23 03:31:48;;;;;;;6.20;5.03;;;;;;;;;;5015378;28;20953;-55
2023/01/23 03:34:16;;;;;;;5.97;4.63;;;;;;;;;;5015272;28;20448;-55
2023/01/23 03:36:44;;;;;;;6.20;4.73;;;;;;;;;;5015255;28;20285;-55
2023/01/23 03:41:54;;;;;;;6.37;4.57;;;;;;;;;;5014843;28;20804;-55
2023/01/23 03:44:20;;;;;;;6.03;5.20;;;;;;;;;;5014673;28;20472;-56
2023/01/23 03:46:48;;;;;;;5.50;4.57;;;;;;;;;;5014758;28;20467;-55
2023/01/23 03:49:14;;;;;;;6.17;5.30;;;;;;;;;;5014888;28;20440;-55
2023/01/23 03:51:40;;;;;;;5.93;5.20;;;;;;;;;;5014597;28;20852;-55
2023/01/23 03:54:07;;;;;;;5.73;5.10;;;;;;;;;;5014782;28;20190;-55
2023/01/23 03:56:33;;;;;;;6.43;5.27;;;;;;;;;;5014655;28;20592;-56
2023/01/23 03:58:59;;;;;;;5.50;5.00;;;;;;;;;;5014619;28;20445;-56
2023/01/23 04:01:25;;;;;;;5.53;5.03;;;;;;;;;;5014658;28;20205;-56
2023/01/23 04:03:51;;;;;;;5.57;4.87;;;;;;;;;;5014375;28;20429;-56
2023/01/23 04:06:17;;;;;;;5.97;5.47;;;;;;;;;;5013846;28;20656;-56
2023/01/23 04:08:43;;;;;;;5.87;5.33;;;;;;;;;;5014524;28;20220;-56
2023/01/23 04:11:11;;;;;;;5.57;5.00;;;;;;;;;;5014301;28;21015;-57
2023/01/23 04:13:37;;;;;;;5.87;5.27;;;;;;;;;;5014390;28;20432;-57
2023/01/23 04:16:04;;;;;;;4.93;4.43;;;;;;;;;;5014223;28;20454;-55
2023/01/23 04:18:30;;;;;;;6.20;5.57;;;;;;;;;;5014371;28;20236;-55
2023/01/23 04:20:56;;;;;;;7.37;6.00;;;;;;;;;;5014085;28;20919;-57
2023/01/23 04:23:23;;;;;;;5.97;5.37;;;;;;;;;;5014164;28;20436;-57
2023/01/23 04:25:49;;;;;;;6.17;5.53;;;;;;;;;;5014108;28;20962;-57
2023/01/23 04:28:17;;;;;;;5.93;5.13;;;;;;;;;;5014447;28;20436;-57
2023/01/23 04:30:43;;;;;;;7.30;5.50;;;;;;;;;;5014106;28;20481;-57
2023/01/23 04:33:09;;;;;;;7.50;5.60;;;;;;;;;;5014001;28;20491;-57
2023/01/23 04:35:35;;;;;;;9.03;6.63;;;;;;;;;;5013961;28;20986;-57
2023/01/23 04:38:01;;;;;;;9.97;6.00;;;;;;;;;;5013932;28;20212;-57
2023/01/23 04:40:27;;;;;;;8.13;6.00;;;;;;;;;;5013785;28;20503;-57
2023/01/23 04:42:53;;;;;;;6.83;5.70;;;;;;;;;;5013763;28;20783;-57
2023/01/23 04:45:20;;;;;;;5.77;5.17;;;;;;;;;;5013653;28;20575;-55
2023/01/23 04:47:46;;;;;;;8.13;5.90;;;;;;;;;;5013822;28;20582;-55
2023/01/23 04:50:12;;;;;;;7.40;6.30;;;;;;;;;;5013633;28;20970;-55
2023/01/23 04:52:38;;;;;;;8.20;6.07;;;;;;;;;;5013643;28;20520;-55
2023/01/23 04:55:05;;;;;;;7.40;5.70;;;;;;;;;;5013616;28;20296;-55
2023/01/23 04:57:31;;;;;;;7.47;6.73;;;;;;;;;;5013660;28;20229;-55
2023/01/23 04:59:57;;;;;;;7.67;6.20;;;;;;;;;;5013495;28;20855;-55
2023/01/23 05:02:24;;;;;;;8.10;6.33;;;;;;;;;;5013498;28;20212;-55
2023/01/23 05:04:50;;;;;;;8.93;6.60;;;;;;;;;;5013257;28;20212;-55
2023/01/23 05:07:16;;;;;;;8.07;7.27;;;;;;;;;;5013475;28;20443;-55
2023/01/23 05:09:42;;;;;;;9.23;6.97;;;;;;;;;;5013394;28;20256;-55
2023/01/23 05:12:08;;;;;;;12.40;7.87;;;;;;;;;;5013206;28;20723;-56
2023/01/23 05:14:34;;;;;;;7.43;6.60;;;;;;;;;;5013205;28;20301;-56
2023/01/23 05:17:00;;;;;;;8.37;7.17;;;;;;;;;;5012811;28;20234;-56
2023/01/23 05:19:27;;;;;;;10.23;7.70;;;;;;;;;;5012555;28;20208;-56
2023/01/23 05:21:53;;;;;;;10.37;7.30;;;;;;;;;;5013058;28;20671;-56
2023/01/23 05:24:19;;;;;;;12.33;7.37;;;;;;;;;;5012949;28;20437;-54
2023/01/23 05:26:45;;;;;;;8.77;7.63;;;;;;;;;;5013129;28;20197;-55
2023/01/23 05:29:11;;;;;;;9.40;7.50;;;;;;;;;;5012996;28;20857;-55
2023/01/23 05:31:37;;;;;;;9.43;6.80;;;;;;;;;;5012748;28;20256;-55
2023/01/23 05:34:03;;;;;;;10.30;7.63;;;;;;;;;;5012704;28;20292;-55
2023/01/23 05:36:30;;;;;;;13.20;7.33;;;;;;;;;;5012845;28;20201;-56
2023/01/23 05:38:56;;;;;;;9.17;7.43;;;;;;;;;;5012818;28;20206;-56
2023/01/23 05:41:22;;;;;;;7.40;6.60;;;;;;;;;;5012609;28;20524;-56
2023/01/23 05:43:49;;;;;;;10.20;7.50;;;;;;;;;;5012412;28;20512;-56
2023/01/23 05:46:17;;;;;;;9.43;6.93;;;;;;;;;;5013091;28;20208;-56
2023/01/23 05:48:43;;;;;;;11.13;8.33;;;;;;;;;;5012625;28;20491;-56
2023/01/23 05:51:09;;;;;;;9.90;6.93;;;;;;;;;;5012574;28;20489;-56
2023/01/23 05:53:36;;;;;;;7.97;6.70;;;;;;;;;;5012577;28;20197;-56
2023/01/23 05:56:04;;;;;;;10.27;7.20;;;;;;;;;;5012535;28;20212;-55
2023/01/23 05:58:30;;;;;;;16.10;13.17;;;;;;;;;;5012536;28;20444;-55
2023/01/23 06:00:56;;;;;;;13.90;9.10;;;;;;;;;;5012352;28;20429;-55
2023/01/23 06:03:22;;;;;;;8.37;7.33;;;;;;;;;;5012420;28;20455;-55
2023/01/23 06:05:48;;;;;;;12.20;7.63;;;;;;;;;;5012195;28;20197;-56
2023/01/23 06:08:14;;;;;;;11.13;7.90;;;;;;;;;;5012516;28;20232;-57
2023/01/23 06:10:42;;;;;;;9.20;7.23;;;;;;;;;;5012028;28;20312;-58
2023/01/23 06:13:08;;;;;;;9.20;7.30;;;;;;;;;;5011992;28;20530;-56
2023/01/23 06:15:34;;;;;;;8.53;7.03;;;;;;;;;;5012037;28;20457;-58
2023/01/23 06:18:00;;;;;;;9.03;6.87;;;;;;;;;;5012144;28;20675;-58
2023/01/23 06:20:26;;;;;;;11.37;7.47;;;;;;;;;;5012018;28;20232;-57
2023/01/23 06:22:52;;;;;;;9.27;7.10;;;;;;;;;;5012001;28;20359;-58
2023/01/23 06:25:19;;;;;;;9.43;7.17;;;;;;;;;;5012098;28;20472;-57
2023/01/23 06:27:46;;;;;;;9.27;7.27;;;;;;;;;;5012050;28;20206;-57
2023/01/23 06:30:13;;;;;;;9.97;7.23;;;;;;;;;;5011619;28;20484;-57
2023/01/23 06:32:39;;;;;;;8.53;7.37;;;;;;;;;;5009608;28;20441;-58
2023/01/23 06:35:05;;;;;;;10.77;7.33;;;;;;;;;;5009527;28;21238;-57
2023/01/23 06:37:31;;;;;;;8.87;7.00;;;;;;;;;;5011382;28;20445;-57
2023/01/23 06:39:57;;;;;;;9.90;7.70;;;;;;;;;;5011441;28;20498;-57
2023/01/23 06:42:23;;;;;;;10.10;6.80;;;;;;;;;;5011303;28;20686;-57
2023/01/23 06:44:50;;;;;;;12.77;7.73;;;;;;;;;;5025269;28;20237;-57
2023/01/23 06:47:18;;;;;;;9.13;7.03;;;;;;;;;;5031044;28;20690;-57
2023/01/23 06:49:44;;;;;;;9.27;6.70;;;;;;;;;;5031104;28;20498;-55
2023/01/23 06:52:10;;;;;;;11.17;7.23;;;;;;;;;;5030873;28;20440;-56
2023/01/23 06:54:36;;;;;;;9.10;6.90;;;;;;;;;;5030902;28;20184;-56
2023/01/23 06:57:03;;;;;;;12.00;7.00;;;;;;;;;;5030849;28;20236;-56
2023/01/23 06:59:29;;;;;;;7.83;6.97;;;;;;;;;;5030833;28;20451;-57
2023/01/23 07:01:56;;;;;;;10.53;7.23;;;;;;;;;;5030687;28;20474;-57
2023/01/23 07:04:22;;;;;;;11.40;7.70;;;;;;;;;;5030639;28;20938;-57
2023/01/23 07:06:48;;;;;;;11.47;7.07;;;;;;;;;;5030697;28;20442;-57
2023/01/23 07:09:14;;;;;;;9.97;7.40;;;;;;;;;;5030812;28;20204;-57
2023/01/23 07:11:40;;;;;;;9.73;6.93;;;;;;;;;;5031142;28;20232;-56
2023/01/23 07:14:06;;;;;;;11.37;7.30;;;;;;;;;;5031002;28;20197;-57
2023/01/23 07:16:34;;;;;;;10.87;7.00;;;;;;;;;;5031208;28;20201;-57
2023/01/23 07:19:04;;;;;;;10.23;7.50;;;;;;;;;;5031063;28;20431;-57
2023/01/23 07:21:30;;;;;;;11.00;7.20;;;;;;;;;;5031211;28;20491;-56
2023/01/23 07:23:56;;;;;;;9.03;7.63;;;;;;;;;;5030890;28;20440;-56
2023/01/23 07:26:22;;;;;;;12.87;7.90;;;;;;;;;;5031316;28;20726;-56
2023/01/23 07:28:48;;;;;;;11.00;7.63;;;;;;;;;;5031053;28;20515;-56
2023/01/23 07:31:13;;;;;;;10.23;7.80;;;;;;;;;;5031032;28;20228;-56
2023/01/23 07:33:39;;;;;;;10.70;7.13;;;;;;;;;;5031002;28;20227;-56
2023/01/23 07:36:07;;;;;;;9.23;7.57;;;;;;;;;;5030982;28;20200;-57
2023/01/23 07:38:34;;;;;;;9.57;7.07;;;;;;;;;;5031038;28;20216;-57
2023/01/23 07:41:00;;;;;;;9.80;7.73;;;;;;;;;;5031590;28;20465;-57
2023/01/23 07:43:26;;;;;;;11.77;6.87;;;;;;;;;;5034411;28;20818;-57
2023/01/23 07:45:52;;;;;;;9.70;7.43;;;;;;;;;;5034498;28;20439;-57
2023/01/23 07:48:18;;;;;;;8.93;7.07;;;;;;;;;;5034266;28;20803;-57
2023/01/23 07:50:44;;;;;;;10.70;7.50;;;;;;;;;;5034342;28;20488;-57
2023/01/23 07:53:11;;;;;;;12.93;8.23;;;;;;;;;;5034254;28;20212;-57
2023/01/23 07:55:38;;;;;;;12.20;7.77;;;;;;;;;;5034233;28;20274;-58
2023/01/23 07:58:04;;;;;;;10.23;8.00;;;;;;;;;;5034033;28;20498;-58
2023/01/23 08:00:30;;;;;;;11.57;8.03;;;;;;;;;;5034294;28;20436;-57
2023/01/23 08:02:56;;;;;;;11.07;7.73;;;;;;;;;;5033839;28;20749;-56
2023/01/23 08:05:21;;;;;;;10.57;7.17;;;;;;;;;;5033945;28;20556;-56
2023/01/23 08:07:47;;;;;;;8.90;7.50;;;;;;;;;;5033913;28;20196;-56
2023/01/23 08:10:15;;;;;;;11.50;7.77;;;;;;;;;;5033821;28;20278;-56
2023/01/23 08:12:41;;;;;;;10.17;8.00;;;;;;;;;;5033888;28;20266;-57
2023/01/23 08:15:08;;;;;;;12.13;8.17;;;;;;;;;;5033593;28;20474;-56
2023/01/23 08:17:34;;;;;;;11.03;7.57;;;;;;;;;;5033526;28;20436;-57
2023/01/23 08:19:59;;;;;;;9.80;7.77;;;;;;;;;;5033557;28;20482;-58
2023/01/23 08:22:25;;;;;;;12.77;8.17;;;;;;;;;;5033629;28;20208;-57
2023/01/23 08:24:51;;;;;;;11.53;7.70;;;;;;;;;;5033355;28;20275;-58
2023/01/23 08:27:19;;;;;;;10.97;8.47;;;;;;;;;;5033306;28;20241;-57
2023/01/23 08:29:45;;;;;;;11.90;8.33;;;;;;;;;;5033541;28;20196;-58
2023/01/23 08:32:11;;;;;;;10.93;7.20;;;;;;;;;;5033035;28;20491;-58
2023/01/23 08:34:37;;;;;;;13.23;8.33;;;;;;;;;;5033203;28;20196;-57
2023/01/23 08:37:03;;;;;;;12.07;8.33;;;;;;;;;;5033301;28;20196;-57
2023/01/23 08:39:29;;;;;;;11.73;8.43;;;;;;;;;;5033362;28;20511;-57
2023/01/23 08:41:55;;;;;;;11.53;7.97;;;;;;;;;;5033014;28;20527;-58
2023/01/23 08:44:22;;;;;;;12.07;9.17;;;;;;;;;;5032990;28;21119;-57
2023/01/23 08:46:48;;;;;;;13.90;9.23;;;;;;;;;;5033105;28;20220;-58
2023/01/23 08:49:18;;;;;;;12.23;9.00;;;;;;;;;;5033007;28;20420;-57
2023/01/23 08:51:44;;;;;;;12.53;9.03;;;;;;;;;;5032851;28;20231;-57
2023/01/23 08:54:10;;;;;;;17.03;11.40;;;;;;;;;;5032941;28;20451;-57
2023/01/23 08:56:36;;;;;;;21.03;13.00;;;;;;;;;;5032957;28;20431;-58
2023/01/23 08:59:02;;;;;;;15.03;10.97;;;;;;;;;;5032688;28;20213;-57
2023/01/23 09:01:29;;;;;;;16.63;10.83;;;;;;;;;;5032936;28;20438;-57
2023/01/23 09:03:56;;;;;;;14.37;10.63;;;;;;;;;;5032458;28;20216;-57
2023/01/23 09:06:22;;;;;;;13.23;9.70;;;;;;;;;;5032642;28;21012;-57
2023/01/23 09:08:48;;;;;;;10.73;8.43;;;;;;;;;;5032431;28;20440;-57
2023/01/23 09:11:14;;;;;;;11.83;8.23;;;;;;;;;;5032496;28;20487;-57
2023/01/23 09:13:41;;;;;;;10.63;8.47;;;;;;;;;;5032622;28;20220;-57
2023/01/23 09:16:07;;;;;;;12.10;8.90;;;;;;;;;;5032327;28;21039;-57
2023/01/23 09:18:35;;;;;;;11.50;8.20;;;;;;;;;;5032443;28;20432;-57
2023/01/23 09:21:05;;;;;;;14.33;9.43;;;;;;;;;;5032367;28;20482;-57
2023/01/23 09:23:31;;;;;;;12.07;8.23;;;;;;;;;;5032418;28;20518;-57
2023/01/23 09:26:01;;;;;;;14.50;8.53;;;;;;;;;;5032318;28;20985;-57
2023/01/23 09:28:27;;;;;;;11.03;8.37;;;;;;;;;;5032491;28;20663;-57
2023/01/23 09:30:53;;;;;;;12.63;9.37;;;;;;;;;;5032086;28;20556;-57
2023/01/23 09:33:23;;;;;;;13.40;8.60;;;;;;;;;;5032047;28;20233;-57
2023/01/23 09:35:52;;;;;;;13.23;8.50;;;;;;;;;;5032160;28;20251;-57
2023/01/23 09:38:18;;;;;;;12.97;9.03;;;;;;;;;;5032082;28;20443;-57
2023/01/23 09:40:45;;;;;;;13.50;9.83;;;;;;;;;;5032389;28;20523;-57
2023/01/23 09:43:13;;;;;;;15.00;9.67;;;;;;;;;;5031982;28;20482;-58
2023/01/23 09:45:40;;;;;;;13.40;8.67;;;;;;;;;;5032247;28;20452;-57
2023/01/23 09:48:15;;;;;;;15.77;9.00;;;;;;;;;;5031991;28;20439;-56
2023/01/23 09:50:47;;;;;;;12.73;9.13;;;;;;;;;;5032459;28;20513;-57
2023/01/23 09:53:16;;;;;;;11.37;8.87;;;;;;;;;;5032115;28;20443;-57
2023/01/23 09:55:44;;;;;;;12.53;9.40;;;;;;;;;;5032273;28;20527;-57
2023/01/23 09:58:15;;;;;;;13.33;9.00;;;;;;;;;;5032092;28;20436;-57
2023/01/23 10:00:41;;;;;;;16.57;9.20;;;;;;;;;;5032120;28;20452;-57
2023/01/23 10:03:11;;;;;;;11.27;9.23;;;;;;;;;;5031621;28;21015;-59
2023/01/23 10:05:42;;;;;;;16.40;9.50;;;;;;;;;;5031643;28;20439;-60
2023/01/23 10:08:16;;;;;;;14.97;9.47;;;;;;;;;;5031744;28;20451;-59
2023/01/23 10:10:51;;;;;;;15.00;9.37;;;;;;;;;;5031843;28;21003;-59
2023/01/23 10:13:19;;;;;;;12.17;9.23;;;;;;;;;;5031970;28;20498;-59
2023/01/23 10:15:56;;;;;;;14.57;9.67;;;;;;;;;;5019077;28;20475;-58
2023/01/23 10:18:24;;;;;;;13.50;10.00;;;;;;;;;;5011574;28;21018;-58
2023/01/23 10:20:52;;;;;;;12.67;9.40;;;;;;;;;;5011614;28;20468;-58
2023/01/23 10:23:29;;;;;;;18.37;10.17;;;;;;;;;;5011732;28;20432;-58
2023/01/23 10:25:56;;;;;;;15.03;9.63;;;;;;;;;;5011598;28;20444;-57
2023/01/23 10:28:28;;;;;;;13.50;10.03;;;;;;;;;;5011303;28;20480;-58
2023/01/23 10:30:58;;;;;;;14.90;10.30;;;;;;;;;;5011370;28;20488;-57
2023/01/23 10:33:26;;;;;;;13.53;10.07;;;;;;;;;;5011210;28;20437;-57
2023/01/23 10:35:55;;;;;;;14.20;9.47;;;;;;;;;;5011351;28;20441;-57
2023/01/23 10:38:25;;;;;;;15.70;10.57;;;;;;;;;;5011403;28;20452;-57
2023/01/23 10:43:37;;;;;;;14.33;9.77;;;;;;;;;;5011134;28;20713;-58
2023/01/23 10:46:08;;;;;;;12.93;9.03;;;;;;;;;;5011106;28;20535;-58
2023/01/23 10:48:41;;;;;;;13.77;10.50;;;;;;;;;;5009415;28;20503;-59
2023/01/23 10:51:25;;;;;;;14.17;10.40;;;;;;;;;;5009537;28;20468;-60
2023/01/23 10:54:04;;;;;;;12.70;9.70;;;;;;;;;;4998239;28;20878;-60
2023/01/23 10:56:31;;;;;;;16.17;10.60;;;;;;;;;;5011679;28;20996;-60
2023/01/23 10:58:58;;;;;;;16.93;10.50;;;;;;;;;;5011503;28;20813;-60
2023/01/23 11:01:26;;;;;;;12.80;9.77;;;;;;;;;;5011474;28;20491;-60
2023/01/23 11:03:52;;;;;;;13.40;9.63;;;;;;;;;;5011416;28;20966;-60
2023/01/23 11:06:20;;;;;;;13.87;10.50;;;;;;;;;;5011568;28;20524;-60
2023/01/23 11:08:50;;;;;;;14.83;10.90;;;;;;;;;;5011544;28;20682;-61
2023/01/23 11:11:21;;;;;;;15.73;10.60;;;;;;;;;;5011405;28;20843;-60
2023/01/23 11:13:48;;;;;;;16.43;10.93;;;;;;;;;;5011418;28;20935;-60
2023/01/23 11:16:16;;;;;;;18.47;12.43;;;;;;;;;;5013781;28;20452;-56
2023/01/23 11:18:45;;;;;;;18.30;11.57;;;;;;;;;;5015223;28;20449;-56
2023/01/23 11:21:19;;;;;;;16.73;12.23;;;;;;;;;;5014948;28;21250;-56
2023/01/23 11:23:45;;;;;;;16.07;11.90;;;;;;;;;;5015204;28;20463;-57
2023/01/23 11:26:30;;;;;;;18.30;12.40;;;;;;;;;;5015213;28;20484;-56
2023/01/23 11:28:56;;;;;;;17.67;11.50;;;;;;;;;;5015127;28;20212;-56
2023/01/23 11:31:25;;;;;;;16.27;11.33;;;;;;;;;;5012519;28;20484;-55
2023/01/23 11:33:54;;;;;;;18.00;11.27;;;;;;;;;;5014356;28;20498;-56
2023/01/23 11:36:40;;;;;;;16.07;11.37;;;;;;;;;;5014355;28;20452;-56
2023/01/23 11:39:15;;;;;;;16.00;11.70;;;;;;;;;;5014186;28;20972;-55
2023/01/23 11:41:41;;;;;;;19.47;11.60;;;;;;;;;;5014384;28;20479;-56
2023/01/23 11:44:08;;;;;;;15.23;11.60;;;;;;;;;;5014074;28;20546;-57
2023/01/23 11:46:44;;;;;;;18.97;12.43;;;;;;;;;;5014246;28;20436;-56
2023/01/23 11:49:24;;;;;;;20.80;12.77;;;;;;;;;;5014110;28;20510;-55
2023/01/23 11:51:59;;;;;;;17.73;12.27;;;;;;;;;;5014125;28;20483;-55
2023/01/23 11:54:37;;;;;;;23.67;13.77;;;;;;;;;;5014206;28;20446;-56
2023/01/23 11:57:07;;;;;;;18.37;12.33;;;;;;;;;;5014014;28;20476;-56
2023/01/23 11:59:45;;;;;;;19.67;12.30;;;;;;;;;;5014775;28;20441;-56
2023/01/23 12:02:26;;;;;;;19.53;11.53;;;;;;;;;;5014121;28;20443;-57
2023/01/23 12:04:57;;;;;;;18.73;11.63;;;;;;;;;;5013939;28;20463;-56
2023/01/23 12:07:24;;;;;;;15.83;12.23;;;;;;;;;;5013950;28;20444;-55
2023/01/23 12:09:55;;;;;;;18.70;12.37;;;;;;;;;;5013674;28;20436;-56
2023/01/23 12:12:25;;;;;;;15.33;11.00;;;;;;;;;;5013713;28;20590;-56
2023/01/23 12:14:57;;;;;;;17.00;11.83;;;;;;;;;;5013668;28;20510;-56
2023/01/23 12:17:32;;;;;;;18.30;11.30;;;;;;;;;;5013660;28;20919;-56
2023/01/23 12:20:04;;;;;;;20.70;13.03;;;;;;;;;;5013694;28;20432;-55
2023/01/23 12:22:34;;;;;;;21.47;12.17;;;;;;;;;;5013741;28;20444;-56
2023/01/23 12:25:06;;;;;;;18.43;11.87;;;;;;;;;;5013540;28;20444;-56
2023/01/23 12:27:35;;;;;;;15.20;11.63;;;;;;;;;;5013082;28;20864;-55
2023/01/23 12:30:16;;;;;;;16.90;11.03;;;;;;;;;;5013156;28;20986;-56
2023/01/23 12:32:50;;;;;;;16.30;11.60;;;;;;;;;;4996816;28;20522;-55
2023/01/23 12:35:24;;;;;;;13.47;10.70;;;;;;;;;;5013312;28;20876;-54
2023/01/23 12:37:58;;;;;;;16.03;11.67;;;;;;;;;;5013290;28;20441;-55
2023/01/23 12:40:26;;;;;;;16.90;11.50;;;;;;;;;;5013504;28;20459;-55
2023/01/23 12:42:55;;;;;;;16.47;10.77;;;;;;;;;;5012960;28;21296;-56
2023/01/23 12:45:22;;;;;;;15.20;10.77;;;;;;;;;;4995324;28;20908;-55
2023/01/23 12:47:51;;;;;;;13.83;9.87;;;;;;;;;;5012963;28;20962;-56
2023/01/23 12:50:19;;;;;;;14.10;10.17;;;;;;;;;;5012725;28;20484;-56
2023/01/23 12:52:48;;;;;;;16.73;11.30;;;;;;;;;;5013000;28;20915;-56
2023/01/23 12:55:17;;;;;;;15.50;10.23;;;;;;;;;;5012966;28;20448;-55
2023/01/23 12:57:50;;;;;;;15.37;11.10;;;;;;;;;;5013058;28;20451;-55
2023/01/23 13:00:21;;;;;;;13.73;10.70;;;;;;;;;;5012869;28;20455;-54
2023/01/23 13:02:51;;;;;;;13.50;10.63;;;;;;;;;;5012684;28;20851;-56
2023/01/23 13:05:23;;;;;;;15.60;11.40;;;;;;;;;;5012563;28;20506;-56
2023/01/23 13:07:52;;;;;;;14.27;9.93;;;;;;;;;;5012833;28;20440;-56
2023/01/23 13:11:39;;;;;;;17.07;11.70;;;;;;;;;;5012469;28;20815;-56
2023/01/23 13:13:18;;;;;;;17.27;11.23;;;;;;;;;;5012354;28;20499;-56
2023/01/23 13:15:44;;;;;;;16.17;12.13;;;;;;;;;;5012623;28;20954;-56
2023/01/23 13:18:21;;;;;;;16.40;12.80;;;;;;;;;;5012339;28;20464;-55
2023/01/23 13:23:39;;;;;;;17.77;11.53;;;;;;;;;;5012478;28;20436;-56
2023/01/23 13:26:30;;;;;;;16.07;11.27;;;;;;;;;;5012252;28;20440;-56
2023/01/23 13:28:56;;;;;;;20.77;12.93;;;;;;;;;;5012312;28;20437;-56
2023/01/23 13:31:32;;;;;;;16.43;11.40;;;;;;;;;;5012313;28;20464;-56
2023/01/23 13:33:58;;;;;;;15.53;11.30;;;;;;;;;;5012300;28;20447;-57
2023/01/23 13:36:33;;;;;;;17.40;11.93;;;;;;;;;;5012394;28;20444;-56
2023/01/23 13:39:00;;;;;;;17.97;12.17;;;;;;;;;;5011576;28;20946;-54
2023/01/23 13:41:27;;;;;;;13.83;11.23;;;;;;;;;;5012186;28;20508;-55
2023/01/23 13:43:54;;;;;;;16.57;12.07;;;;;;;;;;5012077;28;20556;-55
2023/01/23 13:46:27;;;;;;;17.83;11.97;;;;;;;;;;5012552;28;20447;-56
2023/01/23 13:51:43;;;;;;;18.80;12.43;;;;;;;;;;5012446;28;20538;-56
2023/01/23 13:56:58;;;;;;;16.53;12.50;;;;;;;;;;5012627;28;20415;-55
2023/01/23 13:59:25;;;;;;;17.33;11.83;;;;;;;;;;5012130;28;20930;-55
2023/01/23 14:07:48;;;;;;;17.83;12.23;;;;;;;;;;5012267;28;20412;-57
2023/01/23 14:10:18;;;;;;;21.10;12.97;;;;;;;;;;5011980;28;20908;-55
2023/01/23 14:12:44;;;;;;;17.03;12.23;;;;;;;;;;5011854;28;20579;-55
2023/01/23 14:18:03;;;;;;;18.83;13.20;;;;;;;;;;5011785;28;20423;-55
2023/01/23 14:20:32;;;;;;;15.93;11.60;;;;;;;;;;5011903;28;20575;-56
2023/01/23 14:22:59;;;;;;;19.23;12.77;;;;;;;;;;5011811;28;20784;-56
2023/01/23 14:25:25;;;;;;;17.57;12.40;;;;;;;;;;5011667;28;20445;-56
2023/01/23 14:28:01;;;;;;;17.07;12.73;;;;;;;;;;5011792;28;20440;-56
2023/01/23 14:30:30;;;;;;;18.40;12.63;;;;;;;;;;5012083;28;20444;-56
2023/01/23 14:32:57;;;;;;;19.53;11.90;;;;;;;;;;5011882;28;20531;-56
2023/01/23 14:35:25;;;;;;;18.07;11.87;;;;;;;;;;5011756;28;20946;-57
2023/01/23 14:37:53;;;;;;;19.37;12.17;;;;;;;;;;5011905;28;20528;-56
2023/01/23 14:40:21;;;;;;;18.60;13.07;;;;;;;;;;5011612;28;20495;-56
2023/01/23 14:42:51;;;;;;;21.77;13.03;;;;;;;;;;5011688;28;20484;-56
2023/01/23 14:45:17;;;;;;;18.97;13.40;;;;;;;;;;5011450;28;20484;-56
2023/01/23 14:47:45;;;;;;;19.10;12.67;;;;;;;;;;5011819;28;20871;-55
2023/01/23 14:50:15;;;;;;;19.17;13.77;;;;;;;;;;5012755;28;20474;-56
2023/01/23 14:52:41;;;;;;;19.03;13.00;;;;;;;;;;5015719;28;20866;-56
2023/01/23 14:55:19;;;;;;;15.97;11.73;;;;;;;;;;5015375;28;20459;-56
2023/01/23 14:57:47;;;;;;;19.50;13.40;;;;;;;;;;5015636;28;20535;-56
2023/01/23 15:00:16;;;;;;;21.37;13.67;;;;;;;;;;5015533;28;20494;-56
2023/01/23 15:02:44;;;;;;;16.07;12.00;;;;;;;;;;5015610;28;20853;-55